createdAt,value
2019-05-19T00:01:37.354Z,99.90
2019-05-19T00:04:40.513Z,99.90
2019-05-19T00:07:43.841Z,99.90
2019-05-19T00:10:47.002Z,99.90
2019-05-19T00:13:50.235Z,99.90
2019-05-19T00:16:53.328Z,99.90
2019-05-19T00:19:56.485Z,99.90
2019-05-19T00:22:59.750Z,99.90
2019-05-19T00:26:02.992Z,99.90
2019-05-19T00:29:06.316Z,99.90
2019-05-19T00:32:09.511Z,99.90
2019-05-19T00:35:12.786Z,99.90
2019-05-19T00:38:15.794Z,99.90
2019-05-19T00:41:19.855Z,99.90
2019-05-19T00:44:22.998Z,99.90
2019-05-19T00:47:26.207Z,99.90
2019-05-19T00:50:29.362Z,99.90
2019-05-19T00:53:32.490Z,99.90
2019-05-19T00:56:36.120Z,99.90
2019-05-19T00:59:40.750Z,99.90
2019-05-19T01:02:43.916Z,99.90
2019-05-19T01:05:47.078Z,99.90
2019-05-19T01:08:50.301Z,99.90
2019-05-19T01:11:53.363Z,99.90
2019-05-19T01:14:56.658Z,99.90
2019-05-19T01:17:59.998Z,99.90
2019-05-19T01:21:03.158Z,99.90
2019-05-19T01:24:06.286Z,99.90
2019-05-19T01:27:09.425Z,99.90
2019-05-19T01:30:13.060Z,99.90
2019-05-19T01:33:16.200Z,99.90
2019-05-19T01:36:19.343Z,99.90
2019-05-19T01:39:22.485Z,99.90
2019-05-19T01:42:25.526Z,99.90
2019-05-19T01:45:28.926Z,99.90
2019-05-19T01:48:32.247Z,99.90
2019-05-19T01:51:35.438Z,99.90
2019-05-19T01:54:38.618Z,99.90
2019-05-19T01:57:41.805Z,99.90
2019-05-19T02:00:44.902Z,99.90
2019-05-19T02:03:48.333Z,99.90
2019-05-19T02:06:51.599Z,99.90
2019-05-19T02:09:54.899Z,99.90
2019-05-19T02:12:58.166Z,99.90
2019-05-19T02:16:01.292Z,99.90
2019-05-19T02:19:04.591Z,99.90
2019-05-19T02:22:07.806Z,99.90
2019-05-19T02:25:11.183Z,99.90
2019-05-19T02:28:14.474Z,99.90
2019-05-19T02:31:17.795Z,99.90
2019-05-19T02:34:20.899Z,99.90
2019-05-19T02:37:24.138Z,99.90
2019-05-19T02:40:28.895Z,99.90
2019-05-19T02:43:33.476Z,99.90
2019-05-19T02:46:39.210Z,99.90
2019-05-19T02:49:44.359Z,99.90
2019-05-19T02:52:49.466Z,99.90
2019-05-19T02:55:53.296Z,99.90
2019-05-19T02:58:57.545Z,99.90
2019-05-19T03:02:02.725Z,99.90
2019-05-19T03:05:06.252Z,99.90
2019-05-19T03:08:11.076Z,99.90
2019-05-19T03:11:14.263Z,99.90
2019-05-19T03:14:17.465Z,99.90
2019-05-19T03:17:20.735Z,99.90
2019-05-19T03:20:23.846Z,99.90
2019-05-19T03:23:26.943Z,99.90
2019-05-19T03:26:30.139Z,99.90
2019-05-19T03:29:37.892Z,99.90
2019-05-19T03:32:44.965Z,99.90
2019-05-19T03:35:48.123Z,99.90
2019-05-19T03:38:53.042Z,99.90
2019-05-19T03:41:56.259Z,99.90
2019-05-19T03:44:59.447Z,99.90
2019-05-19T03:48:02.687Z,99.90
2019-05-19T03:51:05.474Z,99.90
2019-05-19T03:54:08.634Z,99.90
2019-05-19T03:57:11.852Z,99.90
2019-05-19T04:00:15.107Z,99.90
2019-05-19T04:03:19.773Z,99.90
2019-05-19T04:06:22.966Z,99.90
2019-05-19T04:09:26.743Z,99.90
2019-05-19T04:12:31.275Z,99.90
2019-05-19T04:15:34.463Z,99.90
2019-05-19T04:18:37.665Z,99.90
2019-05-19T04:21:48.805Z,99.90
2019-05-19T04:24:45.895Z,99.90
2019-05-19T04:27:49.242Z,99.90
2019-05-19T04:30:52.286Z,99.90
2019-05-19T04:33:55.415Z,99.90
2019-05-19T04:36:58.535Z,99.90
2019-05-19T04:40:02.803Z,99.90
2019-05-19T04:43:06.022Z,99.90
2019-05-19T04:46:09.292Z,99.90
2019-05-19T04:49:13.595Z,99.90
2019-05-19T04:52:16.637Z,99.90
2019-05-19T04:55:19.690Z,99.90
2019-05-19T04:58:22.897Z,99.90
2019-05-19T05:01:26.100Z,99.90
2019-05-19T05:04:30.780Z,99.90
2019-05-19T05:07:33.939Z,99.90
2019-05-19T05:10:38.846Z,99.90
2019-05-19T05:13:41.939Z,99.90
2019-05-19T05:16:46.741Z,99.90
2019-05-19T05:19:49.858Z,99.90
2019-05-19T05:22:52.967Z,99.90
2019-05-19T05:25:56.252Z,99.90
2019-05-19T05:28:59.452Z,99.90
2019-05-19T05:32:02.849Z,99.90
2019-05-19T05:35:06.658Z,99.90
2019-05-19T05:38:09.985Z,99.90
2019-05-19T05:41:13.190Z,99.90
2019-05-19T05:44:17.239Z,99.90
2019-05-19T05:47:22.174Z,99.90
2019-05-19T05:50:25.292Z,99.90
2019-05-19T05:53:28.415Z,99.90
2019-05-19T05:56:32.683Z,99.90
2019-05-19T05:59:35.799Z,99.90
2019-05-19T06:02:39.027Z,99.90
2019-05-19T06:05:42.195Z,99.90
2019-05-19T06:08:47.222Z,99.90
2019-05-19T06:11:50.427Z,99.90
2019-05-19T06:14:53.524Z,99.90
2019-05-19T06:17:56.810Z,99.90
2019-05-19T06:21:00.045Z,99.90
2019-05-19T06:24:03.207Z,99.90
2019-05-19T06:27:06.398Z,99.90
2019-05-19T06:30:10.499Z,99.90
2019-05-19T06:33:14.710Z,99.90
2019-05-19T06:36:17.795Z,99.90
2019-05-19T06:39:22.566Z,99.90
2019-05-19T06:42:25.697Z,99.90
2019-05-19T06:45:30.671Z,99.90
2019-05-19T06:48:33.892Z,99.90
2019-05-19T06:51:36.981Z,99.90
2019-05-19T06:54:40.179Z,99.90
2019-05-19T06:57:43.414Z,99.90
2019-05-19T07:00:46.669Z,99.90
2019-05-19T07:03:49.863Z,99.90
2019-05-19T07:06:53.277Z,99.90
2019-05-19T07:09:58.808Z,99.90
2019-05-19T07:13:02.212Z,99.90
2019-05-19T07:16:05.508Z,99.90
2019-05-19T07:19:08.809Z,99.90
2019-05-19T07:22:11.900Z,99.90
2019-05-19T07:25:15.201Z,99.90
2019-05-19T07:28:19.498Z,99.90
2019-05-19T07:31:22.811Z,99.90
2019-05-19T07:34:27.066Z,99.90
2019-05-19T07:37:30.262Z,99.90
2019-05-19T07:40:33.535Z,99.90
2019-05-19T07:43:36.962Z,99.90
2019-05-19T07:46:40.132Z,99.90
2019-05-19T07:49:44.913Z,99.90
2019-05-19T07:52:48.063Z,99.90
2019-05-19T07:55:51.385Z,99.90
2019-05-19T07:58:54.652Z,99.90
2019-05-19T08:01:59.582Z,99.90
2019-05-19T08:05:02.827Z,99.90
2019-05-19T08:08:07.090Z,99.90
2019-05-19T08:11:10.482Z,99.90
2019-05-19T08:14:13.525Z,99.90
2019-05-19T08:17:16.821Z,99.90
2019-05-19T08:20:19.996Z,99.90
2019-05-19T08:23:24.873Z,99.90
2019-05-19T08:26:29.637Z,99.90
2019-05-19T08:29:33.065Z,99.90
2019-05-19T08:32:36.275Z,99.90
2019-05-19T08:35:39.540Z,99.90
2019-05-19T08:38:42.735Z,99.90
2019-05-19T08:41:45.962Z,99.90
2019-05-19T08:44:49.230Z,99.90
2019-05-19T08:47:53.521Z,99.90
2019-05-19T08:50:56.538Z,99.90
2019-05-19T08:54:13.597Z,99.90
2019-05-19T08:57:06.406Z,99.90
2019-05-19T09:00:10.125Z,99.90
2019-05-19T09:03:13.451Z,99.90
2019-05-19T09:06:16.606Z,99.90
2019-05-19T09:09:19.812Z,99.90
2019-05-19T09:12:23.036Z,99.90
2019-05-19T09:15:26.198Z,99.90
2019-05-19T09:18:29.395Z,99.90
2019-05-19T09:21:32.547Z,99.90
2019-05-19T09:24:37.375Z,99.90
2019-05-19T09:27:42.100Z,99.90
2019-05-19T09:30:45.287Z,99.90
2019-05-19T09:33:49.466Z,99.90
2019-05-19T09:36:52.570Z,99.90
2019-05-19T09:39:57.490Z,99.90
2019-05-19T09:43:00.670Z,99.90
2019-05-19T09:46:05.628Z,99.90
2019-05-19T09:49:26.916Z,99.90
2019-05-19T09:52:30.140Z,99.90
2019-05-19T09:55:33.323Z,99.90
2019-05-19T09:58:36.628Z,99.90
2019-05-19T10:01:41.626Z,99.90
2019-05-19T10:04:44.926Z,99.90
2019-05-19T10:07:48.159Z,99.90
2019-05-19T10:11:14.894Z,99.90
2019-05-19T10:14:21.609Z,99.90
2019-05-19T10:17:24.734Z,99.90
2019-05-19T10:20:27.891Z,99.90
2019-05-19T10:23:31.084Z,99.90
2019-05-19T10:26:35.226Z,99.90
2019-05-19T10:29:38.446Z,99.90
2019-05-19T10:32:41.834Z,99.90
2019-05-19T10:35:45.033Z,99.90
2019-05-19T10:38:48.262Z,99.90
2019-05-19T10:41:51.332Z,99.90
2019-05-19T10:44:54.519Z,99.90
2019-05-19T10:47:57.810Z,99.90
2019-05-19T10:51:00.983Z,99.90
2019-05-19T10:54:04.107Z,99.90
2019-05-19T10:57:07.399Z,99.90
2019-05-19T11:00:11.314Z,99.90
2019-05-19T11:03:14.607Z,99.90
2019-05-19T11:06:17.909Z,99.90
2019-05-19T11:09:21.075Z,99.90
2019-05-19T11:12:24.298Z,99.90
2019-05-19T11:15:27.486Z,99.90
2019-05-19T11:18:31.307Z,99.90
2019-05-19T11:21:34.398Z,99.90
2019-05-19T11:24:37.489Z,99.90
2019-05-19T11:27:40.484Z,99.90
2019-05-19T11:30:43.575Z,99.90
2019-05-19T11:33:46.662Z,99.90
2019-05-19T11:36:50.554Z,99.90
2019-05-19T11:39:53.772Z,99.90
2019-05-19T11:42:56.962Z,98.50
2019-05-19T11:46:00.200Z,97.20
2019-05-19T11:49:03.256Z,94.80
2019-05-19T11:52:06.275Z,91.70
2019-05-19T11:55:09.586Z,90.60
2019-05-19T11:58:12.732Z,88.30
2019-05-19T12:01:16.066Z,88.10
2019-05-19T12:04:19.326Z,87.20
2019-05-19T12:07:22.671Z,89.00
2019-05-19T12:10:26.971Z,90.00
2019-05-19T12:13:29.978Z,86.50
2019-05-19T12:16:34.954Z,84.80
2019-05-19T12:19:38.103Z,82.80
2019-05-19T12:22:41.198Z,82.90
2019-05-19T12:25:44.399Z,84.20
2019-05-19T12:28:47.554Z,83.00
2019-05-19T12:31:50.767Z,82.20
2019-05-19T12:34:53.849Z,81.50
2019-05-19T12:37:57.339Z,82.30
2019-05-19T12:41:01.511Z,79.70
2019-05-19T12:44:04.964Z,79.20
2019-05-19T12:47:08.294Z,77.20
2019-05-19T12:50:11.872Z,77.90
2019-05-19T12:53:15.066Z,81.80
2019-05-19T12:56:18.200Z,85.40
2019-05-19T12:59:22.451Z,92.10
2019-05-19T13:02:26.399Z,95.90
2019-05-19T13:05:29.684Z,98.30
2019-05-19T13:08:32.798Z,99.90
2019-05-19T13:11:36.927Z,99.90
2019-05-19T13:14:40.101Z,99.90
2019-05-19T13:17:43.218Z,99.90
2019-05-19T13:20:46.275Z,99.90
2019-05-19T13:23:50.594Z,99.90
2019-05-19T13:26:56.420Z,99.90
2019-05-19T13:29:58.622Z,99.90
2019-05-19T13:33:01.853Z,99.90
2019-05-19T13:36:06.848Z,99.90
2019-05-19T13:39:09.986Z,99.90
2019-05-19T13:42:13.390Z,99.90
2019-05-19T13:45:16.650Z,99.90
2019-05-19T13:48:19.978Z,99.90
2019-05-19T13:51:23.062Z,99.90
2019-05-19T13:54:26.137Z,99.90
2019-05-19T13:57:29.474Z,99.90
2019-05-19T14:00:32.522Z,99.90
2019-05-19T14:03:35.821Z,99.90
2019-05-19T14:06:39.207Z,99.90
2019-05-19T14:09:42.518Z,99.90
2019-05-19T14:12:46.567Z,99.90
2019-05-19T14:15:49.526Z,99.90
2019-05-19T14:18:52.818Z,99.90
2019-05-19T14:21:55.914Z,99.90
2019-05-19T14:24:59.190Z,99.90
2019-05-19T14:28:02.567Z,99.90
2019-05-19T14:31:05.805Z,99.90
2019-05-19T14:34:08.919Z,99.90
2019-05-19T14:37:13.032Z,99.90
2019-05-19T14:40:16.620Z,99.50
2019-05-19T14:43:20.750Z,98.30
2019-05-19T14:46:23.939Z,97.40
2019-05-19T14:49:27.175Z,95.10
2019-05-19T14:52:30.217Z,94.20
2019-05-19T14:55:33.416Z,92.30
2019-05-19T14:58:36.650Z,90.30
2019-05-19T15:01:39.812Z,90.80
2019-05-19T15:04:43.003Z,90.00
2019-05-19T15:07:46.094Z,90.40
2019-05-19T15:10:49.318Z,90.30
2019-05-19T15:13:52.619Z,90.20
2019-05-19T15:16:55.778Z,91.10
2019-05-19T15:20:00.646Z,92.10
2019-05-19T15:23:03.738Z,92.70
2019-05-19T15:26:06.899Z,94.10
2019-05-19T15:29:10.026Z,94.00
2019-05-19T15:32:14.677Z,93.70
2019-05-19T15:35:17.854Z,94.20
2019-05-19T15:38:22.682Z,95.30
2019-05-19T15:41:26.982Z,95.60
2019-05-19T15:44:29.994Z,95.40
2019-05-19T15:47:33.157Z,95.70
2019-05-19T15:50:36.359Z,95.30
2019-05-19T15:53:39.703Z,95.30
2019-05-19T15:56:42.967Z,95.20
2019-05-19T15:59:46.099Z,95.60
2019-05-19T16:02:49.346Z,95.90
2019-05-19T16:05:52.828Z,97.10
2019-05-19T16:08:55.835Z,97.20
2019-05-19T16:12:00.519Z,97.80
2019-05-19T16:15:04.378Z,98.10
2019-05-19T16:18:07.670Z,98.60
2019-05-19T16:21:10.775Z,98.10
2019-05-19T16:24:13.895Z,98.60
2019-05-19T16:27:17.057Z,98.30
2019-05-19T16:30:20.363Z,98.90
2019-05-19T16:33:25.180Z,99.30
2019-05-19T16:36:30.181Z,99.90
2019-05-19T16:39:33.353Z,99.90
2019-05-19T16:42:38.347Z,99.90
2019-05-19T16:45:41.692Z,99.90
2019-05-19T16:48:44.787Z,99.90
2019-05-19T16:51:48.083Z,99.90
2019-05-19T16:55:11.940Z,99.90
2019-05-19T16:58:21.313Z,99.90
2019-05-19T17:01:20.269Z,99.90
2019-05-19T17:04:23.694Z,99.90
2019-05-19T17:07:26.643Z,99.90
2019-05-19T17:10:30.800Z,99.90
2019-05-19T17:13:33.959Z,99.90
2019-05-19T17:16:38.297Z,99.90
2019-05-19T17:19:41.515Z,99.90
2019-05-19T17:22:44.771Z,99.90
2019-05-19T17:25:47.974Z,99.90
2019-05-19T17:29:00.085Z,99.90
2019-05-19T17:32:05.546Z,99.90
2019-05-19T17:35:01.205Z,99.90
2019-05-19T17:38:04.439Z,99.90
2019-05-19T17:41:07.642Z,99.90
2019-05-19T17:44:10.821Z,99.90
2019-05-19T17:47:13.986Z,99.90
2019-05-19T17:50:22.531Z,99.90
2019-05-19T17:53:25.498Z,99.90
2019-05-19T17:56:29.680Z,99.90
2019-05-19T17:59:33.260Z,99.90
2019-05-19T18:02:36.478Z,99.90
2019-05-19T18:05:39.875Z,99.90
2019-05-19T18:08:42.942Z,99.90
2019-05-19T18:11:47.777Z,99.90
2019-05-19T18:14:51.014Z,99.90
2019-05-19T18:17:54.077Z,99.90
2019-05-19T18:20:57.438Z,99.90
2019-05-19T18:24:00.461Z,99.90
2019-05-19T18:27:04.746Z,99.90
2019-05-19T18:30:08.230Z,99.90
2019-05-19T18:33:11.578Z,99.90
2019-05-19T18:36:14.811Z,99.90
2019-05-19T18:39:18.166Z,99.90
2019-05-19T18:42:21.366Z,99.90
2019-05-19T18:45:24.390Z,99.90
2019-05-19T18:48:27.697Z,99.90
2019-05-19T18:51:30.850Z,99.90
2019-05-19T18:54:33.942Z,99.90
2019-05-19T18:57:37.076Z,99.90
2019-05-19T19:00:40.230Z,99.90
2019-05-19T19:03:45.066Z,99.90
2019-05-19T19:06:48.172Z,99.90
2019-05-19T19:09:51.283Z,99.90
2019-05-19T19:12:54.374Z,99.90
2019-05-19T19:15:57.602Z,99.90
2019-05-19T19:19:00.739Z,99.90
2019-05-19T19:22:05.085Z,99.90
2019-05-19T19:25:08.324Z,99.90
2019-05-19T19:28:12.714Z,99.90
2019-05-19T19:31:15.970Z,99.90
2019-05-19T19:34:19.210Z,99.90
2019-05-19T19:37:22.398Z,99.90
2019-05-19T19:40:28.794Z,99.90
2019-05-19T19:43:32.063Z,99.90
2019-05-19T19:46:35.325Z,99.90
2019-05-19T19:49:38.518Z,99.90
2019-05-19T19:52:41.768Z,99.90
2019-05-19T19:55:44.806Z,99.90
2019-05-19T19:58:48.142Z,99.90
2019-05-19T20:01:52.250Z,99.90
2019-05-19T20:04:55.221Z,99.90
2019-05-19T20:07:58.486Z,99.90
2019-05-19T20:11:01.653Z,99.90
2019-05-19T20:14:05.005Z,99.90
2019-05-19T20:17:08.210Z,99.90
2019-05-19T20:20:11.291Z,99.90
2019-05-19T20:23:14.591Z,99.90
2019-05-19T20:26:17.787Z,99.90
2019-05-19T20:29:20.978Z,99.90
2019-05-19T20:32:24.202Z,99.90
2019-05-19T20:35:27.481Z,99.90
2019-05-19T20:38:30.700Z,99.90
2019-05-19T20:41:33.862Z,99.90
2019-05-19T20:44:37.059Z,99.90
2019-05-19T20:47:40.354Z,99.90
2019-05-19T20:50:43.452Z,99.90
2019-05-19T20:53:46.678Z,99.90
2019-05-19T20:56:49.860Z,99.90
2019-05-19T20:59:52.976Z,99.90
2019-05-19T21:02:56.126Z,99.90
2019-05-19T21:05:59.427Z,99.90
2019-05-19T21:09:04.430Z,99.90
2019-05-19T21:12:07.967Z,99.90
2019-05-19T21:15:11.566Z,99.90
2019-05-19T21:18:14.904Z,99.90
2019-05-19T21:21:18.170Z,99.90
2019-05-19T21:24:21.387Z,99.90
2019-05-19T21:27:24.659Z,99.90
2019-05-19T21:30:27.849Z,99.90
2019-05-19T21:33:31.882Z,99.90
2019-05-19T21:36:35.061Z,99.90
2019-05-19T21:39:38.173Z,99.90
2019-05-19T21:42:41.354Z,99.90
2019-05-19T21:45:44.547Z,99.90
2019-05-19T21:48:47.745Z,99.90
2019-05-19T21:51:50.829Z,99.90
2019-05-19T21:54:54.006Z,99.90
2019-05-19T21:57:57.026Z,99.90
2019-05-19T22:01:01.926Z,99.90
2019-05-19T22:04:05.474Z,99.90
2019-05-19T22:07:13.482Z,99.90
2019-05-19T22:10:16.670Z,99.90
2019-05-19T22:13:19.863Z,99.90
2019-05-19T22:16:23.982Z,99.90
2019-05-19T22:19:27.313Z,99.90
2019-05-19T22:22:30.480Z,99.90
2019-05-19T22:25:33.562Z,99.90
2019-05-19T22:28:36.969Z,99.90
2019-05-19T22:31:40.158Z,99.90
2019-05-19T22:34:43.362Z,99.90
2019-05-19T22:37:46.453Z,99.90
2019-05-19T22:40:49.687Z,99.90
2019-05-19T22:43:53.041Z,99.90
2019-05-19T22:46:56.144Z,99.90
2019-05-19T22:50:00.827Z,99.90
2019-05-19T22:53:03.857Z,99.90
2019-05-19T22:56:06.980Z,99.90
2019-05-19T22:59:19.395Z,99.90
2019-05-19T23:02:15.182Z,99.90
2019-05-19T23:05:18.418Z,99.90
2019-05-19T23:08:21.674Z,99.90
2019-05-19T23:11:25.006Z,99.90
2019-05-19T23:14:28.178Z,99.90
2019-05-19T23:17:31.295Z,99.90
2019-05-19T23:20:34.406Z,99.90
2019-05-19T23:23:37.447Z,99.90
2019-05-19T23:26:42.470Z,99.90
2019-05-19T23:29:45.678Z,99.90
2019-05-19T23:32:48.810Z,99.90
2019-05-19T23:35:51.898Z,99.90
2019-05-19T23:38:55.150Z,99.90
2019-05-19T23:41:58.286Z,99.90
2019-05-19T23:45:01.511Z,99.90
2019-05-19T23:48:07.655Z,99.90
2019-05-19T23:51:10.941Z,99.90
2019-05-19T23:54:14.073Z,99.90
2019-05-19T23:57:17.334Z,99.90
